Downers Grove, IL (60517)

4:09 AM CDT on April 27, 2015 (GMT -0500)
75th Street/ Janes Ave | | Change Station
CLOSE
Current Station
Personal Weather Station
Location: Woodridge, IL
Elevation: 752 ft
Nearby Weather Stations

Elev 752 ft 41.75 °N, 88.05 °W | Updated 1 second ago

Clear
Clear
40.8 °F
Feels Like 41 °F
N
0.7
Wind Variable Wind from South
Gusts 3.5 mph

Today
High -- | Low -- °F
--% Chance of Precip.
Yesterday
High -- | Low -- °F
Precip. -- in
5:54 AM 7:45 PM
Waxing Gibbous, 63% visible
Pressure 30.04 in
Visibility 10.0 miles
Clouds Clear
Windchill 41 °F
Dew Point 35 °F
Humidity 79%
Rainfall 0.00 in
Snow Depth Not available.
UV 0 out of 12
Pollen 9.70 out of 12
Air Quality Not available.
Flu Activity Regional
METAR KLOT 270855Z AUTO 01007KT 10SM CLR 04/M01 A3004 RMK AO2 T00381006

More Conditions Fewer Conditions

Pressure 30.04 in
Visibility 10.0 miles
Clouds Clear
Windchill 41 °F
Dew Point 35 °F
Humidity 79%
Rainfall 0.00 in
Snow Depth Not available.
UV 0 out of 12
Pollen 9.70 out of 12
Air Quality Not available.
Flu Activity Regional
METAR KLOT 270855Z AUTO 01007KT 10SM CLR 04/M01 A3004 RMK AO2 T00381006

More Conditions Fewer Conditions

10-Day Weather Forecast

Almanac

Astronomy

Apr. 27, 2015 Rise Set
Actual Time
Civil Twilight
Nautical Twilight
Astronomical Twilight
Moon
Length of Visible Light
Length of Day
Tomorrow will be .
, % of the Moon is Illuminated

Today's Extremes

State Highs State Lows

Community

WunderPhotos

Upload Photos

1,817,277 photos uploaded!

WunderBlogs® & News

Nearby

Air Quality

  Air Quality AQ Index Pollutant
Not available.

Snow Depth

Station Depth Elevation

Earthquake Activity

City Distance Mag. Time & Date
Minimum magnitude displayed is 2.5.

Coastal Water Temperatures

Place Temperature

Stations

Nearby Weather Stations

Station Location Temp. Windchill Dew Point Humidity Wind Precip. Elev Updated Type